createdAt,value
2023-04-18T00:02:18.600Z,49.95
2023-04-18T00:04:47.811Z,51.42
2023-04-18T00:07:16.032Z,46.67
2023-04-18T00:09:43.680Z,53.92
2023-04-18T00:12:12.028Z,49.40
2023-04-18T00:14:41.002Z,53.47
2023-04-18T00:17:09.421Z,47.42
2023-04-18T00:19:38.604Z,43.15
2023-04-18T00:22:08.539Z,50.35
2023-04-18T00:24:36.004Z,46.70
2023-04-18T00:27:03.521Z,51.92
2023-04-18T00:29:31.742Z,48.17
2023-04-18T00:31:59.233Z,41.35
2023-04-18T00:34:26.717Z,43.15
2023-04-18T00:36:54.226Z,47.25
2023-04-18T00:39:23.049Z,47.30
2023-04-18T00:41:50.540Z,46.22
2023-04-18T00:44:18.095Z,40.33
2023-04-18T00:46:45.581Z,47.00
2023-04-18T00:49:13.366Z,47.85
2023-04-18T00:51:41.097Z,48.92
2023-04-18T00:54:08.959Z,45.38
2023-04-18T00:56:37.888Z,44.45
2023-04-18T00:59:06.089Z,45.47
2023-04-18T01:01:33.821Z,44.15
2023-04-18T01:04:01.491Z,51.67
2023-04-18T01:06:29.971Z,49.35
2023-04-18T01:08:57.835Z,52.25
2023-04-18T01:11:25.395Z,49.00
2023-04-18T01:14:03.925Z,52.00
2023-04-18T01:16:33.208Z,39.30
2023-04-18T01:19:01.097Z,43.72
2023-04-18T01:21:31.155Z,49.53
2023-04-18T01:24:01.176Z,40.85
2023-04-18T01:26:30.401Z,41.40
2023-04-18T01:28:57.880Z,46.80
2023-04-18T01:31:25.501Z,42.53
2023-04-18T01:33:53.070Z,42.90
2023-04-18T01:36:20.723Z,41.17
2023-04-18T01:38:48.204Z,32.83
2023-04-18T01:41:22.977Z,34.17
2023-04-18T01:43:51.759Z,35.85
2023-04-18T01:46:19.635Z,35.97
2023-04-18T01:48:47.225Z,35.03
2023-04-18T01:51:14.980Z,32.53
2023-04-18T01:53:42.923Z,27.00
2023-04-18T01:56:11.103Z,28.20
2023-04-18T01:58:38.644Z,30.30
2023-04-18T02:01:07.574Z,31.85
2023-04-18T02:03:35.387Z,31.73
2023-04-18T02:06:04.812Z,28.38
2023-04-18T02:08:35.472Z,28.40
2023-04-18T02:11:03.033Z,29.85
2023-04-18T02:13:31.038Z,30.45
2023-04-18T02:15:58.593Z,29.45
2023-04-18T02:18:27.951Z,29.25
2023-04-18T02:20:55.416Z,30.42
2023-04-18T02:23:22.943Z,29.05
2023-04-18T02:25:50.845Z,27.75
2023-04-18T02:28:18.702Z,28.90
2023-04-18T02:30:46.271Z,32.58
2023-04-18T02:33:13.806Z,26.73
2023-04-18T02:35:42.546Z,29.38
2023-04-18T02:38:10.119Z,29.48
2023-04-18T02:40:37.586Z,28.88
2023-04-18T02:43:05.006Z,26.38
2023-04-18T02:45:32.777Z,28.40
2023-04-18T02:48:00.320Z,26.60
2023-04-18T02:50:29.130Z,25.23
2023-04-18T02:52:57.944Z,27.05
2023-04-18T02:55:26.918Z,27.25
2023-04-18T02:57:54.479Z,27.67
2023-04-18T03:00:22.057Z,27.58
2023-04-18T03:02:49.627Z,29.92
2023-04-18T03:05:17.539Z,32.00
2023-04-18T03:07:45.132Z,28.48
2023-04-18T03:10:13.924Z,27.63
2023-04-18T03:12:41.448Z,30.38
2023-04-18T03:15:09.687Z,29.23
2023-04-18T03:17:37.267Z,29.35
2023-04-18T03:20:05.675Z,29.33
2023-04-18T03:22:33.231Z,30.33
2023-04-18T03:25:01.084Z,31.60
2023-04-18T03:27:29.883Z,28.25
2023-04-18T03:29:57.339Z,26.85
2023-04-18T03:32:24.889Z,29.48
2023-04-18T03:34:52.366Z,30.55
2023-04-18T03:37:19.829Z,27.20
2023-04-18T03:39:47.285Z,28.15
2023-04-18T03:42:14.715Z,28.90
2023-04-18T03:44:43.489Z,25.98
2023-04-18T03:47:11.031Z,28.45
2023-04-18T03:49:39.087Z,25.88
2023-04-18T03:52:06.585Z,26.75
2023-04-18T03:54:34.061Z,26.90
2023-04-18T03:57:03.042Z,31.70
2023-04-18T03:59:30.955Z,28.20
2023-04-18T04:01:59.991Z,28.45
2023-04-18T04:04:27.732Z,28.88
2023-04-18T04:06:55.980Z,25.95
2023-04-18T04:09:23.889Z,25.48
2023-04-18T04:11:51.407Z,28.45
2023-04-18T04:14:18.991Z,25.85
2023-04-18T04:16:46.608Z,27.20
2023-04-18T04:19:15.874Z,28.92
2023-04-18T04:21:43.385Z,27.20
2023-04-18T04:24:10.870Z,25.58
2023-04-18T04:26:38.418Z,27.58
2023-04-18T04:29:06.039Z,27.40
2023-04-18T04:31:33.530Z,23.85
2023-04-18T04:34:01.763Z,23.08
2023-04-18T04:36:30.702Z,27.73
2023-04-18T04:38:58.187Z,26.88
2023-04-18T04:41:25.746Z,25.52
2023-04-18T04:43:53.910Z,25.77
2023-04-18T04:46:23.367Z,22.10
2023-04-18T04:48:51.436Z,24.45
2023-04-18T04:51:27.995Z,22.52
2023-04-18T04:53:56.829Z,25.13
2023-04-18T04:56:24.503Z,26.00
2023-04-18T04:58:53.025Z,25.35
2023-04-18T05:01:20.696Z,23.25
2023-04-18T05:03:48.507Z,26.98
2023-04-18T05:06:20.529Z,24.42
2023-04-18T05:08:48.199Z,24.42
2023-04-18T05:11:17.121Z,27.33
2023-04-18T05:13:44.671Z,24.55
2023-04-18T05:16:12.190Z,23.73
2023-04-18T05:18:41.322Z,27.15
2023-04-18T05:21:08.932Z,25.42
2023-04-18T05:23:37.337Z,24.85
2023-04-18T05:26:05.196Z,25.02
2023-04-18T05:28:33.994Z,25.83
2023-04-18T05:31:02.158Z,21.33
2023-04-18T05:33:29.938Z,24.48
2023-04-18T05:35:58.126Z,22.88
2023-04-18T05:38:25.905Z,29.10
2023-04-18T05:40:55.557Z,23.38
2023-04-18T05:43:23.400Z,22.75
2023-04-18T05:45:54.732Z,23.42
2023-04-18T05:48:25.151Z,28.38
2023-04-18T05:50:52.657Z,26.80
2023-04-18T05:53:20.320Z,21.27
2023-04-18T05:55:48.854Z,23.38
2023-04-18T05:58:16.535Z,23.88
2023-04-18T06:00:44.214Z,25.17
2023-04-18T06:03:13.191Z,25.13
2023-04-18T06:05:41.041Z,23.13
2023-04-18T06:08:08.552Z,24.88
2023-04-18T06:10:38.897Z,29.10
2023-04-18T06:13:06.723Z,24.90
2023-04-18T06:15:35.370Z,23.33
2023-04-18T06:18:02.939Z,19.88
2023-04-18T06:20:31.919Z,22.50
2023-04-18T06:22:59.411Z,22.80
2023-04-18T06:25:26.870Z,23.85
2023-04-18T06:27:54.421Z,22.20
2023-04-18T06:30:22.322Z,22.65
2023-04-18T06:32:49.954Z,21.38
2023-04-18T06:35:17.900Z,24.15
2023-04-18T06:37:46.864Z,26.02
2023-04-18T06:40:14.639Z,22.98
2023-04-18T06:42:43.099Z,25.65
2023-04-18T06:45:12.051Z,23.80
2023-04-18T06:47:39.986Z,22.98
2023-04-18T06:50:08.970Z,26.60
2023-04-18T06:52:40.503Z,19.88
2023-04-18T06:55:10.105Z,22.20
2023-04-18T06:57:37.769Z,21.33
2023-04-18T07:00:06.276Z,19.75
2023-04-18T07:02:33.999Z,28.05
2023-04-18T07:05:01.659Z,21.35
2023-04-18T07:07:29.313Z,21.17
2023-04-18T07:09:57.184Z,19.42
2023-04-18T07:12:26.159Z,21.85
2023-04-18T07:14:53.645Z,18.90
2023-04-18T07:17:21.178Z,17.25
2023-04-18T07:19:48.829Z,21.48
2023-04-18T07:22:16.271Z,20.50
2023-04-18T07:24:44.159Z,20.75
2023-04-18T07:27:11.688Z,21.45
2023-04-18T07:29:40.524Z,19.98
2023-04-18T07:32:08.629Z,18.17
2023-04-18T07:34:37.498Z,18.42
2023-04-18T07:37:05.160Z,25.20
2023-04-18T07:39:35.854Z,22.02
2023-04-18T07:42:04.075Z,19.50
2023-04-18T07:44:31.891Z,20.88
2023-04-18T07:47:00.775Z,21.42
2023-04-18T07:49:28.260Z,16.48
2023-04-18T07:51:55.727Z,21.15
2023-04-18T07:54:23.212Z,20.55
2023-04-18T07:56:50.726Z,19.65
2023-04-18T07:59:18.384Z,19.42
2023-04-18T08:01:45.889Z,21.00
2023-04-18T08:04:15.816Z,23.52
2023-04-18T08:06:43.489Z,20.50
2023-04-18T08:09:12.061Z,19.83
2023-04-18T08:11:41.281Z,19.80
2023-04-18T08:14:08.977Z,20.33
2023-04-18T08:16:36.678Z,22.08
2023-04-18T08:19:04.288Z,16.75
2023-04-18T08:21:33.869Z,19.30
2023-04-18T08:24:01.332Z,21.60
2023-04-18T08:26:28.880Z,22.45
2023-04-18T08:28:56.404Z,22.02
2023-04-18T08:31:23.951Z,23.90
2023-04-18T08:33:51.515Z,24.60
2023-04-18T08:36:19.081Z,19.58
2023-04-18T08:38:48.052Z,17.60
2023-04-18T08:41:17.232Z,20.15
2023-04-18T08:43:48.623Z,22.67
2023-04-18T08:46:17.111Z,22.50
2023-04-18T08:48:45.139Z,21.00
2023-04-18T08:51:12.630Z,19.40
2023-04-18T08:53:41.968Z,23.17
2023-04-18T08:56:14.643Z,22.10
2023-04-18T08:58:42.168Z,20.60
2023-04-18T09:01:10.760Z,22.70
2023-04-18T09:03:40.215Z,23.85
2023-04-18T09:06:12.621Z,22.70
2023-04-18T09:08:41.915Z,22.17
2023-04-18T09:11:24.620Z,20.67
2023-04-18T09:13:52.186Z,26.92
2023-04-18T09:16:22.948Z,20.35
2023-04-18T09:19:10.388Z,21.30
2023-04-18T09:21:40.360Z,23.27
2023-04-18T09:24:20.814Z,22.38
2023-04-18T09:26:51.278Z,20.73
2023-04-18T09:29:22.521Z,21.38
2023-04-18T09:32:01.232Z,21.30
2023-04-18T09:34:29.564Z,18.45
2023-04-18T09:37:07.758Z,21.98
2023-04-18T09:39:35.602Z,20.73
2023-04-18T09:42:04.736Z,23.55
2023-04-18T09:44:32.607Z,22.38
2023-04-18T09:47:00.339Z,20.10
2023-04-18T09:49:28.200Z,19.80
2023-04-18T09:51:56.728Z,21.90
2023-04-18T09:54:25.145Z,21.27
2023-04-18T09:56:53.984Z,24.27
2023-04-18T09:59:35.519Z,21.80
2023-04-18T10:02:04.499Z,19.40
2023-04-18T10:04:32.377Z,21.55
2023-04-18T10:07:00.234Z,19.67
2023-04-18T10:09:31.404Z,19.08
2023-04-18T10:11:59.328Z,15.05
2023-04-18T10:14:28.532Z,22.05
2023-04-18T10:16:57.101Z,21.00
2023-04-18T10:19:26.035Z,20.42
2023-04-18T10:21:54.831Z,18.85
2023-04-18T10:24:48.059Z,21.52
2023-04-18T10:27:16.198Z,20.25
2023-04-18T10:29:52.911Z,17.90
2023-04-18T10:32:21.318Z,19.80
2023-04-18T10:34:50.004Z,18.25
2023-04-18T10:37:19.018Z,18.88
2023-04-18T10:39:53.542Z,21.73
2023-04-18T10:42:58.543Z,22.90
2023-04-18T10:45:28.658Z,19.73
2023-04-18T10:48:23.757Z,20.60
2023-04-18T10:51:13.742Z,20.75
2023-04-18T10:53:46.897Z,18.02
2023-04-18T10:56:15.569Z,19.85
2023-04-18T10:58:43.393Z,19.23
2023-04-18T11:01:13.780Z,18.45
2023-04-18T11:03:41.438Z,25.65
2023-04-18T11:06:09.067Z,16.67
2023-04-18T11:08:36.843Z,19.15
2023-04-18T11:11:09.022Z,18.35
2023-04-18T11:13:37.368Z,18.60
2023-04-18T11:16:05.608Z,18.77
2023-04-18T11:18:42.107Z,17.83
2023-04-18T11:21:09.655Z,21.10
2023-04-18T11:23:37.112Z,22.50
2023-04-18T11:26:04.579Z,17.90
2023-04-18T11:28:32.957Z,17.23
2023-04-18T11:31:02.896Z,18.35
2023-04-18T11:33:31.276Z,16.35
2023-04-18T11:36:00.522Z,17.05
2023-04-18T11:38:29.839Z,16.42
2023-04-18T11:40:57.521Z,16.70
2023-04-18T11:43:25.980Z,17.52
2023-04-18T11:45:54.738Z,19.38
2023-04-18T11:48:22.479Z,21.52
2023-04-18T11:50:50.320Z,17.00
2023-04-18T11:56:20.715Z,16.38
2023-04-18T11:58:48.451Z,15.95
2023-04-18T12:01:17.511Z,14.95
2023-04-18T12:03:45.428Z,18.05
2023-04-18T12:06:13.339Z,15.90
2023-04-18T12:08:44.352Z,18.25
2023-04-18T12:11:22.243Z,14.60
2023-04-18T12:13:50.017Z,18.80
2023-04-18T12:16:17.464Z,17.75
2023-04-18T12:18:47.357Z,15.35
2023-04-18T12:21:17.002Z,14.60
2023-04-18T12:23:45.984Z,16.05
2023-04-18T12:26:15.082Z,16.65
2023-04-18T12:28:46.041Z,15.80
2023-04-18T12:31:13.712Z,16.00
2023-04-18T12:33:41.213Z,17.02
2023-04-18T12:36:10.005Z,17.38
2023-04-18T12:38:37.699Z,16.92
2023-04-18T12:41:05.570Z,19.00
2023-04-18T12:43:33.333Z,15.02
2023-04-18T12:46:02.142Z,17.48
2023-04-18T12:48:29.609Z,18.20
2023-04-18T12:50:57.062Z,14.55
2023-04-18T12:53:24.595Z,16.42
2023-04-18T12:55:52.903Z,17.83
2023-04-18T12:58:20.791Z,15.75
2023-04-18T13:00:48.285Z,18.48
2023-04-18T13:03:17.398Z,21.42
2023-04-18T13:05:45.042Z,19.13
2023-04-18T13:08:16.990Z,18.17
2023-04-18T13:10:45.665Z,18.98
2023-04-18T13:13:13.367Z,18.60
2023-04-18T13:15:41.217Z,18.55
2023-04-18T13:18:08.979Z,21.60
2023-04-18T13:20:37.969Z,20.80
2023-04-18T13:23:05.644Z,19.20
2023-04-18T13:25:33.171Z,18.10
2023-04-18T13:28:01.067Z,20.35
2023-04-18T13:30:28.845Z,19.55
2023-04-18T13:32:56.905Z,20.08
2023-04-18T13:35:24.543Z,19.45
2023-04-18T13:37:53.536Z,17.40
2023-04-18T13:40:21.068Z,16.13
2023-04-18T13:42:48.688Z,20.05
2023-04-18T13:45:16.308Z,19.33
2023-04-18T13:47:43.841Z,17.42
2023-04-18T13:50:11.823Z,18.15
2023-04-18T13:52:39.431Z,19.30
2023-04-18T13:55:10.627Z,18.60
2023-04-18T13:57:38.149Z,21.23
2023-04-18T14:00:09.288Z,22.38
2023-04-18T14:02:36.937Z,19.92
2023-04-18T14:05:04.994Z,17.25
2023-04-18T14:07:32.578Z,16.40
2023-04-18T14:10:00.505Z,21.45
2023-04-18T14:12:29.309Z,23.98
2023-04-18T14:14:56.868Z,18.10
2023-04-18T14:17:24.422Z,21.63
2023-04-18T14:19:52.163Z,15.75
2023-04-18T14:22:19.736Z,18.50
2023-04-18T14:24:47.226Z,16.98
2023-04-18T14:27:14.722Z,19.90
2023-04-18T14:29:43.553Z,18.00
2023-04-18T14:32:11.064Z,19.00
2023-04-18T14:34:38.884Z,16.25
2023-04-18T14:37:06.540Z,21.73
2023-04-18T14:39:34.249Z,18.63
2023-04-18T14:42:01.786Z,19.60
2023-04-18T14:44:30.390Z,16.63
2023-04-18T14:46:59.299Z,14.90
2023-04-18T14:49:26.850Z,17.75
2023-04-18T14:51:54.392Z,15.45
2023-04-18T14:54:21.898Z,14.77
2023-04-18T14:56:49.337Z,15.40
2023-04-18T14:59:17.214Z,16.05
2023-04-18T15:01:44.883Z,13.55
2023-04-18T15:04:13.931Z,15.82
2023-04-18T15:06:42.216Z,13.15
2023-04-18T15:09:09.722Z,12.90
2023-04-18T15:11:37.436Z,17.20
2023-04-18T15:14:04.921Z,16.48
2023-04-18T15:16:35.270Z,13.02
2023-04-18T15:19:02.920Z,16.20
2023-04-18T15:21:31.760Z,14.68
2023-04-18T15:24:00.553Z,14.73
2023-04-18T15:26:28.108Z,17.33
2023-04-18T15:28:55.632Z,12.70
2023-04-18T15:31:23.502Z,17.73
2023-04-18T15:33:51.069Z,14.45
2023-04-18T15:36:18.554Z,16.02
2023-04-18T15:38:47.405Z,16.55
2023-04-18T15:41:14.893Z,10.95
2023-04-18T15:43:42.733Z,16.50
2023-04-18T15:46:10.608Z,15.27
2023-04-18T15:48:38.235Z,14.52
2023-04-18T15:51:05.726Z,13.10
2023-04-18T15:53:33.265Z,13.25
2023-04-18T15:56:02.279Z,12.63
2023-04-18T15:58:30.304Z,14.13
2023-04-18T16:00:58.091Z,10.52
2023-04-18T16:03:25.823Z,12.85
2023-04-18T16:05:53.497Z,12.65
2023-04-18T16:08:21.136Z,13.05
2023-04-18T16:10:48.653Z,12.13
2023-04-18T16:13:17.535Z,10.57
2023-04-18T16:15:45.073Z,14.82
2023-04-18T16:18:12.577Z,11.55
2023-04-18T16:20:40.083Z,13.32
2023-04-18T16:23:07.557Z,14.88
2023-04-18T16:25:35.182Z,7.55
2023-04-18T16:28:02.885Z,12.15
2023-04-18T16:30:31.710Z,10.40
2023-04-18T16:32:59.313Z,10.10
2023-04-18T16:35:27.341Z,10.95
2023-04-18T16:37:54.819Z,8.82
2023-04-18T16:40:22.301Z,8.90
2023-04-18T16:42:49.855Z,5.88
2023-04-18T16:45:17.614Z,6.75
2023-04-18T16:47:46.475Z,6.82
2023-04-18T16:50:13.961Z,8.07
2023-04-18T16:52:41.518Z,6.20
2023-04-18T16:55:10.245Z,6.03
2023-04-18T16:57:37.791Z,6.95
2023-04-18T17:00:07.142Z,6.35
2023-04-18T17:02:35.278Z,8.30
2023-04-18T17:05:04.771Z,8.65
2023-04-18T17:07:32.390Z,8.73
2023-04-18T17:09:59.872Z,7.13
2023-04-18T17:12:27.440Z,5.97
2023-04-18T17:14:54.980Z,7.93
2023-04-18T17:17:23.674Z,6.35
2023-04-18T17:19:51.274Z,6.50
2023-04-18T17:22:20.077Z,6.95
2023-04-18T17:24:47.578Z,7.53
2023-04-18T17:27:15.081Z,6.55
2023-04-18T17:29:42.703Z,7.88
2023-04-18T17:32:10.172Z,8.00
2023-04-18T17:34:37.932Z,9.88
2023-04-18T17:37:06.260Z,8.18
2023-04-18T17:39:35.089Z,5.47
2023-04-18T17:42:02.682Z,7.72
2023-04-18T17:44:30.239Z,8.10
2023-04-18T17:46:57.771Z,7.40
2023-04-18T17:49:30.876Z,9.05
2023-04-18T17:51:58.440Z,6.55
2023-04-18T17:54:25.971Z,6.13
2023-04-18T17:56:55.113Z,8.63
2023-04-18T17:59:22.754Z,8.23
2023-04-18T18:01:50.460Z,6.55
2023-04-18T18:04:19.775Z,10.90
2023-04-18T18:06:54.822Z,9.90
2023-04-18T18:09:22.296Z,9.68
2023-04-18T18:11:49.947Z,7.30
2023-04-18T18:14:20.085Z,7.35
2023-04-18T18:16:47.567Z,9.13
2023-04-18T18:19:16.690Z,5.45
2023-04-18T18:21:44.417Z,9.65
2023-04-18T18:24:12.070Z,10.13
2023-04-18T18:26:39.517Z,10.57
2023-04-18T18:29:09.901Z,8.77
2023-04-18T18:31:39.565Z,9.35
2023-04-18T18:34:07.327Z,8.85
2023-04-18T18:36:35.033Z,11.02
2023-04-18T18:39:02.554Z,10.18
2023-04-18T18:41:30.163Z,11.93
2023-04-18T18:43:57.794Z,8.70
2023-04-18T18:46:27.163Z,12.88
2023-04-18T18:48:56.532Z,12.82
2023-04-18T18:51:24.658Z,12.02
2023-04-18T18:53:52.129Z,9.90
2023-04-18T18:56:19.842Z,11.88
2023-04-18T18:58:47.404Z,7.40
2023-04-18T19:01:15.058Z,7.20
2023-04-18T19:03:42.888Z,9.43
2023-04-18T19:06:12.163Z,9.40
2023-04-18T19:08:39.797Z,8.63
2023-04-18T19:11:07.390Z,9.48
2023-04-18T19:13:34.885Z,11.07
2023-04-18T19:16:02.519Z,14.90
2023-04-18T19:18:30.420Z,11.38
2023-04-18T19:20:58.193Z,11.25
2023-04-18T19:23:27.936Z,8.18
2023-04-18T19:25:55.637Z,10.68
2023-04-18T19:28:23.499Z,8.40
2023-04-18T19:30:51.192Z,10.43
2023-04-18T19:33:18.741Z,8.15
2023-04-18T19:35:46.364Z,11.70
2023-04-18T19:38:14.253Z,8.88
2023-04-18T19:40:43.346Z,7.65
2023-04-18T19:43:10.952Z,15.27
2023-04-18T19:45:39.174Z,10.50
2023-04-18T19:48:07.521Z,10.98
2023-04-18T19:50:35.083Z,10.88
2023-04-18T19:53:02.668Z,10.02
2023-04-18T19:55:30.404Z,12.10
2023-04-18T19:58:00.436Z,9.80
2023-04-18T20:00:28.137Z,11.45
2023-04-18T20:02:55.904Z,8.85
2023-04-18T20:05:24.082Z,9.75
2023-04-18T20:07:51.736Z,8.98
2023-04-18T20:10:20.728Z,9.07
2023-04-18T20:12:49.985Z,9.07
2023-04-18T20:15:19.408Z,11.10
2023-04-18T20:17:46.958Z,11.40
2023-04-18T20:20:14.624Z,10.43
2023-04-18T20:22:44.682Z,13.95
2023-04-18T20:25:12.107Z,12.48
2023-04-18T20:27:39.714Z,15.40
2023-04-18T20:30:08.522Z,15.00
2023-04-18T20:32:37.374Z,10.07
2023-04-18T20:35:05.488Z,14.05
2023-04-18T20:37:36.671Z,10.05
2023-04-18T20:40:08.050Z,9.55
2023-04-18T20:42:36.734Z,11.27
2023-04-18T20:45:04.312Z,11.38
2023-04-18T20:47:31.847Z,12.65
2023-04-18T20:50:01.180Z,10.57
2023-04-18T20:52:28.884Z,14.52
2023-04-18T20:54:56.376Z,14.35
2023-04-18T20:57:24.054Z,12.48
2023-04-18T20:59:51.527Z,12.18
2023-04-18T21:02:19.269Z,16.17
2023-04-18T21:04:47.662Z,11.68
2023-04-18T21:07:16.564Z,12.88
2023-04-18T21:09:44.037Z,10.25
2023-04-18T21:12:11.519Z,13.50
2023-04-18T21:14:39.745Z,12.65
2023-04-18T21:17:07.384Z,16.13
2023-04-18T21:19:34.819Z,11.98
2023-04-18T21:22:02.307Z,12.25
2023-04-18T21:24:31.139Z,13.95
2023-04-18T21:26:58.704Z,13.30
2023-04-18T21:29:26.183Z,17.33
2023-04-18T21:31:54.187Z,15.32
2023-04-18T21:34:21.711Z,10.82
2023-04-18T21:36:49.327Z,12.43
2023-04-18T21:39:16.998Z,14.82
2023-04-18T21:41:46.103Z,13.60
2023-04-18T21:44:13.898Z,15.27
2023-04-18T21:46:41.596Z,14.32
2023-04-18T21:49:09.118Z,16.23
2023-04-18T21:51:36.595Z,20.20
2023-04-18T21:54:04.639Z,14.70
2023-04-18T21:56:32.070Z,18.88
2023-04-18T21:59:01.010Z,16.23
2023-04-18T22:01:28.794Z,16.75
2023-04-18T22:03:56.673Z,16.88
2023-04-18T22:06:24.291Z,15.68
2023-04-18T22:08:51.901Z,18.65
2023-04-18T22:11:19.421Z,16.45
2023-04-18T22:13:47.358Z,16.95
2023-04-18T22:16:16.287Z,16.95
2023-04-18T22:18:43.798Z,18.27
2023-04-18T22:21:11.353Z,16.23
2023-04-18T22:23:38.808Z,15.98
2023-04-18T22:26:06.506Z,18.95
2023-04-18T22:28:34.143Z,18.10
2023-04-18T22:31:01.687Z,13.82
2023-04-18T22:33:30.874Z,20.00
2023-04-18T22:35:58.392Z,20.35
2023-04-18T22:38:26.037Z,16.90
2023-04-18T22:40:53.818Z,19.20
2023-04-18T22:43:23.672Z,17.77
2023-04-18T22:45:51.673Z,15.75
2023-04-18T22:48:19.650Z,13.00
2023-04-18T22:50:49.765Z,15.18
2023-04-18T22:53:17.737Z,17.55
2023-04-18T22:55:45.960Z,19.38
2023-04-18T22:58:13.693Z,17.05
2023-04-18T23:00:41.294Z,13.63
2023-04-18T23:03:08.921Z,19.77
2023-04-18T23:05:36.466Z,13.13
2023-04-18T23:08:06.894Z,17.85
2023-04-18T23:10:34.858Z,12.13
2023-04-18T23:13:02.407Z,14.60
2023-04-18T23:15:29.837Z,12.02
2023-04-18T23:17:57.412Z,12.63
2023-04-18T23:20:25.288Z,13.68
2023-04-18T23:22:52.841Z,14.93
2023-04-18T23:25:21.763Z,13.27
2023-04-18T23:27:49.336Z,14.60
2023-04-18T23:30:17.184Z,12.80
2023-04-18T23:32:44.694Z,15.25
2023-04-18T23:35:12.272Z,15.05
2023-04-18T23:37:39.736Z,12.68
2023-04-18T23:40:09.065Z,9.30
2023-04-18T23:42:38.230Z,14.15
2023-04-18T23:45:06.830Z,13.85
2023-04-18T23:47:34.539Z,12.48
2023-04-18T23:50:02.045Z,14.45
2023-04-18T23:52:29.530Z,9.70
2023-04-18T23:55:00.227Z,11.75
2023-04-18T23:57:28.251Z,10.27
2023-04-18T23:59:57.054Z,12.27
